Tiempo atmosférico en la estación meteorológica de Escorca, Lluc, Illes Balears (490 m.)



Fecha
DESCASC
Temp. máxima en grados centígrados (hora)
DESCASC
Temp. mínima en grados centígrados (hora)
DESCASC
Temp. media en grados centígrados
DESCASC
Racha de viento máxima en m/sg (hora)
DESCASC
Velocidad máxima media en intervalos de 10 minutos(hora)
DESCASC
Precipitaciones diarias en mm
DESCASC
Precipitaciones de 00:00 a 06:00 en mm
DESCASC
Precipitaciones de 06:00 a 12:00 en mm
DESCASC
Precipitaciones de 12:00 a 18:00 en mm
DESCASC
Precipitaciones de 18:00 a 24:00 en mm
DESCASC
16-04-2019 18.9 (13:50) 7.1 (06:20) 13 5.83 (00:20) 2.22 (00:50) 0 0 0 0 0
15-04-2019 17.8 (13:10) 9.7 (06:40) 13.7 8.33 (13:50) 3.06 (11:00) 0 0 0 0 0
14-04-2019 21.2 (13:20) 0.7 (00:00) 11 6.67 (12:50) 2.22 (23:10) 0 0 0 0 0
13-04-2019 17.4 (12:40) 1.8 (00:00) 9.6 6.11 (12:50) 1.94 (09:20) 0 0 0 0 0
12-04-2019 13.8 (10:50) 5.6 (00:00) 9.7 6.94 (01:30) 1.39 (01:30) 1 0.1 0.9 0 0
11-04-2019 15.9 (13:50) 5.2 (00:00) 10.5 6.67 (13:20) 1.67 (15:00) 0.5 0 0 0 0.5
10-04-2019 13.8 (16:10) 6.1 (00:00) 10 7.22 (16:30) 2.22 (06:00) 3 2.5 0.5 0 0
09-04-2019 14.1 (09:10) 6.1 (00:00) 10.1 11.11 (23:00) 4.44 (23:59) 10.4 0 10.3 0.1 0
08-04-2019 16.7 (17:10) 0.4 (00:00) 8.6 7.22 (09:00) 2.78 (09:00) 0 0 0 0 0
07-04-2019 10.7 (11:50) 2.8 (00:00) 6.7 8.89 (12:20) 2.22 (01:40) 0 0 0 0 0
06-04-2019 12.8 (15:00) 4.4 (00:00) 8.6 8.89 (00:50) 3.33 (05:00) 5.1 4.9 0.2 0 0
05-04-2019 15.7 (12:50) -1.4 (-00:0) 7.1 12.22 (19:10) 4.17 (19:20) 5.2 0 0 0.9 4.3
04-04-2019 11.3 (16:00) 3.8 (00:00) 7.6 7.5 (12:10) 2.22 (06:50) 0.5 0.5 0 0 0
03-04-2019 18.9 (12:50) 4.1 (00:00) 11.5 10 (15:20) 3.33 (14:10) 1.9 0 0 0 1.9
02-04-2019 18.8 (13:10) 2.2 (00:00) 10.5 4.44 (18:30) 1.67 (19:20) 0 0 0 0 0
01-04-2019 15.8 (16:00) 5.8 (00:00) 10.8 6.94 (01:50) 1.94 (01:50) 0 0 0 0 0
31-03-2019 15.6 (13:00) 7.3 (00:00) 11.5 9.44 (16:10) 3.33 (14:10) 0.5 0 0 0 0.5
30-03-2019 16.1 (12:40) 5.1 (00:00) 10.6 7.22 (16:00) 2.22 (16:20) 0 0 0 0 0
29-03-2019 15.2 (12:10) -0.1 (00:00) 7.5 6.11 (16:30) 2.5 (16:00) 0 0 0 0 0
28-03-2019 15 (13:00) 1.7 (00:00) 8.4 7.22 (13:30) 2.22 (16:00) 0 0 0 0 0
27-03-2019 13.9 (11:10) 1.6 (00:00) 7.7 9.72 (04:50) 3.89 (04:50) 0 0 0 0 0
26-03-2019 11.6 (11:40) 2.9 (00:00) 7.3 11.67 (12:40) 3.33 (12:50) 0 0 0 0 0
25-03-2019 18.6 (11:30) 1.4 (00:00) 10 6.67 (09:40) 2.5 (15:20) 0 0 0 0 0
24-03-2019 20.4 (13:00) 0.9 (00:00) 10.6 5.56 (14:30) 2.22 (14:30) 0 0 0 0 0
23-03-2019 19.5 (12:40) 3.2 (00:00) 11.4 5.28 (13:10) 1.67 (10:50) 0 0 0 0 0
22-03-2019 15.4 (12:30) 6.4 (00:00) 10.9 6.67 (03:30) 2.22 (03:20) 0 0 0 0 0
21-03-2019 10.1 (12:00) 4.6 (00:00) 7.4 8.06 (11:00) 2.22 (04:50) 0 0 0 0 0
20-03-2019 8.1 (09:20) 4.5 (00:00) 6.3 10.28 (11:00) 2.22 (11:30) 2.2 0 0 2.2 0
19-03-2019 8.6 (12:10) 1.9 (00:00) 5.3 6.94 (21:10) 3.33 (18:10) 8.5 0 7.9 0.6 0

Gráficas

Temp. máximas Temp. mínimas Temp. medias Precipitaciones Rachas de viento máximas Velocidades máximas media en intervalos de 10 minutos

Datos horarios

Fecha y hora oficial Temperatura (ºC) Velocidad del viento (km/h) Dirección del viento Racha (km/h) Dirección de racha Precipitación (mm) Presión (hPa) Tendencia (hPa) Humedad (%)
2019-04-17 23:00:00 12.1 8 Sudeste 27 Sur 0 -- -- 48
2019-04-17 22:00:00 11.5 8 Sudeste 22 Sudeste 0 -- -- 58
2019-04-17 21:00:00 11.2 6 Sudeste 24 Sudeste 0 -- -- 84
2019-04-17 20:00:00 12.1 8 Sudeste 22 Sudeste 0 -- -- 79
2019-04-17 19:00:00 13.9 6 Sudeste 22 Sudeste 0 -- -- 69
2019-04-17 18:00:00 14.7 8 Sudeste 23 Sudeste 0 -- -- 62
2019-04-17 17:00:00 16 8 Sudeste 26 Este 0 -- -- 58
2019-04-17 16:00:00 16.4 6 Sudeste 23 Sudeste 0 -- -- 56
2019-04-17 15:00:00 16.8 7 Sudeste 22 Sudeste 0 -- -- 57
2019-04-17 14:00:00 17.3 7 Sudeste 21 Sudeste 0 -- -- 54
2019-04-17 13:00:00 17.9 7 Sudeste 22 Sudeste 0 -- -- 50
2019-04-17 12:00:00 16.1 8 Sudeste 22 Sudeste 0 -- -- 53
2019-04-17 11:00:00 15.1 9 Este 23 Sudeste 0 -- -- 55
2019-04-17 10:00:00 14.3 5 Este 17 Sudeste 0 -- -- 61
2019-04-17 09:00:00 10.3 3 Este 9 Sudeste 0 -- -- 84
2019-04-17 08:00:00 4.8 0 Calma -- -- 0 -- -- 88
2019-04-17 07:00:00 5.2 0 Calma -- -- 0 -- -- 86
2019-04-17 06:00:00 6.5 0 Calma 7 Este 0 -- -- 86
2019-04-17 05:00:00 8.8 0 Calma 17 Sudeste 0 -- -- 89
2019-04-17 04:00:00 9 5 Este 15 Este 0 -- -- 88
2019-04-17 03:00:00 8.9 5 Este 10 Este 0 -- -- 83
2019-04-17 02:00:00 6.9 0 Calma 5 Este 0 -- -- 87
2019-04-17 01:00:00 8 0 Calma 6 Este 0 -- -- 85
2019-04-17 00:00:00 8.8 0 Calma 8 Sudeste 0 -- -- 83
2019-04-16 23:00:00 9.4 5 Sur 16 Sur 0 -- -- 78
2019-04-16 22:00:00 9.7 3 Sur 12 Sudeste 0 -- -- 70
2019-04-16 21:00:00 11 3 Sudeste 12 Sudoeste 0 -- -- 74
2019-04-16 20:00:00 12.4 2 Este 11 Sudeste 0 -- -- 71
2019-04-16 19:00:00 13.4 0 Calma 13 Nordeste 0 -- -- 71
2019-04-16 18:00:00 14.4 0 Calma 13 Sudoeste 0 -- -- 63
2019-04-16 17:00:00 14.4 3 Nordeste 17 Este 0 -- -- 61
2019-04-16 16:00:00 16.1 3 Sur 12 Noroeste 0 -- -- 48
2019-04-16 15:00:00 16.1 3 Sudoeste 12 Sudoeste 0 -- -- 44
2019-04-16 14:00:00 18.7 3 Sur 16 Sudoeste 0 -- -- 39
2019-04-16 13:00:00 17.1 0 Calma 16 Oeste 0 -- -- 39
2019-04-16 12:00:00 17.6 4 Sur 16 Sudeste 0 -- -- 39
2019-04-16 11:00:00 16.2 3 Sur 13 Sur 0 -- -- 43
2019-04-16 10:00:00 15.4 2 Sur 8 Oeste 0 -- -- 45
2019-04-16 09:00:00 11.2 0 Calma 5 Sudeste 0 -- -- 69
2019-04-16 08:00:00 9.1 0 Calma 12 Noroeste 0 -- -- 71
2019-04-16 07:00:00 8.8 4 Este 11 Este 0 -- -- 73
2019-04-16 06:00:00 7.7 0 Calma 5 Sudeste 0 -- -- 78
2019-04-16 05:00:00 7.7 0 Calma -- -- 0 -- -- 75
2019-04-16 04:00:00 7.7 0 Calma 4 Sudeste 0 -- -- 68
2019-04-16 03:00:00 8.9 0 Calma 7 Este 0 -- -- 59
2019-04-16 02:00:00 10.4 0 Calma 15 Sur 0 -- -- 52
2019-04-16 01:00:00 10 4 Sur 21 Sur 0 -- -- 51
2019-04-16 00:00:00 10.9 5 Sur 19 Sur 0 -- -- 49
2019-04-15 23:00:00 10.2 7 Sudeste 23 Sudeste 0 -- -- 50
2019-04-15 22:00:00 10.7 10 Sudeste 23 Sudeste 0 -- -- 47
2019-04-15 21:00:00 11.5 6 Sudeste 22 Sudeste 0 -- -- 44
2019-04-15 20:00:00 12.2 9 Sudeste 26 Sudeste 0 -- -- 42
2019-04-15 19:00:00 13.3 8 Sudeste 23 Sudeste 0 -- -- 41
2019-04-15 18:00:00 13.9 7 Sudeste 24 Este 0 -- -- 39
2019-04-15 17:00:00 14.6 8 Sudeste 25 Sudeste 0 -- -- 40
2019-04-15 16:00:00 15.4 9 Sudeste 28 Sur 0 -- -- 41
2019-04-15 15:00:00 16 8 Sudeste 24 Sudeste 0 -- -- 43
2019-04-15 14:00:00 16.6 8 Sudeste 30 Sudeste 0 -- -- 44
2019-04-15 13:00:00 17.4 10 Sudeste 26 Sur 0 -- -- 42
2019-04-15 12:00:00 16 9 Sudeste 25 Sudeste 0 -- -- 41
2019-04-15 11:00:00 15.5 11 Sudeste 24 Sudeste 0 -- -- 39
2019-04-15 10:00:00 14.3 9 Sudeste 22 Sudeste 0 -- -- 40
2019-04-15 09:00:00 13.2 7 Sudeste 23 Sur 0 -- -- 45
2019-04-15 08:00:00 10.1 5 Sudeste 19 Sur 0 -- -- 56
2019-04-15 07:00:00 9.9 8 Sudeste 20 Sur 0 -- -- 53
2019-04-15 06:00:00 10.1 6 Sudeste 20 Sudeste 0 -- -- 49
2019-04-15 05:00:00 10.3 6 Sudeste 19 Sudeste 0 -- -- 42
2019-04-15 04:00:00 10.9 6 Este 17 Sudeste 0 -- -- 39
2019-04-15 03:00:00 10.8 5 Sudeste 21 Este 0 -- -- 42
2019-04-15 02:00:00 11 8 Sudeste 22 Sudeste 0 -- -- 48
2019-04-15 01:00:00 10.9 6 Sudeste 18 Sudeste 0 -- -- 61
2019-04-15 00:00:00 11.3 6 Sudeste 20 Este 0 -- -- 79
2019-04-14 23:00:00 12 6 Este 18 Sudeste 0 -- -- 79
2019-04-14 22:00:00 13.1 5 Este 19 Este 0 -- -- 73
2019-04-14 21:00:00 13.7 5 Este 13 Este 0 -- -- 67
2019-04-14 20:00:00 14.3 3 Este 13 Sur 0 -- -- 71
2019-04-14 19:00:00 17.4 0 Calma 11 Sur 0 -- -- 36
2019-04-14 18:00:00 18.1 2 Sudoeste 15 Sudeste 0 -- -- 26
2019-04-14 17:00:00 19.1 5 Sur 15 Este 0 -- -- 25
2019-04-14 16:00:00 19.5 4 Sudeste 17 Sudeste 0 -- -- 23
2019-04-14 15:00:00 18.6 4 Sudeste 19 Sudeste 0 -- -- 24
2019-04-14 14:00:00 19.4 6 Sudeste 24 Sudoeste 0 -- -- 22
2019-04-14 13:00:00 20.2 5 Sudeste 24 Este 0 -- -- 19
2019-04-14 12:00:00 19 3 Sudeste 21 Este 0 -- -- 19
2019-04-14 11:00:00 17.8 4 Sur 22 Este 0 -- -- 19
2019-04-14 10:00:00 13.6 0 Calma 5 Este 0 -- -- 63
2019-04-14 09:00:00 8.1 0 Calma 9 Norte 0 -- -- 71
2019-04-14 08:00:00 2.6 0 Calma 13 Sudoeste 0 -- -- 82
2019-04-14 07:00:00 0.9 0 Calma 4 Este 0 -- -- 84
2019-04-14 06:00:00 1.1 0 Calma -- -- 0 -- -- 84
2019-04-14 05:00:00 1.2 0 Calma -- -- 0 -- -- 83
2019-04-14 04:00:00 1.5 0 Calma -- -- 0 -- -- 81
2019-04-14 03:00:00 2.3 0 Calma -- -- 0 -- -- 79
2019-04-14 02:00:00 2.9 0 Calma -- -- 0 -- -- 78
2019-04-14 01:00:00 3.5 0 Calma -- -- 0 -- -- 79
2019-04-14 00:00:00 4.3 0 Calma 3 Sudeste 0 -- -- 77
2019-04-13 23:00:00 4.9 0 Calma 5 Sudeste 0 -- -- 73
2019-04-13 22:00:00 6.5 0 Calma -- -- 0 -- -- 67
2019-04-13 21:00:00 8.7 0 Calma -- -- 0 -- -- 57
2019-04-13 20:00:00 11.6 0 Calma 8 Sur 0 -- -- 47
2019-04-13 19:00:00 14.4 2 Sur 14 Sur 0 -- -- 35
2019-04-13 18:00:00 15.6 4 Sur 16 Sudeste 0 -- -- 33
2019-04-13 17:00:00 16.4 4 Sur 16 Sudeste 0 -- -- 33
2019-04-13 16:00:00 16.8 4 Sur 18 Sudeste 0 -- -- 36
2019-04-13 15:00:00 17 4 Sur 17 Sudeste 0 -- -- 40
2019-04-13 14:00:00 16.2 4 Sudeste 18 Sur 0 -- -- 44
2019-04-13 13:00:00 15.5 4 Este 22 Sudeste 0 -- -- 39
2019-04-13 12:00:00 16.4 3 Sur 13 Sudeste 0 -- -- 42
2019-04-13 11:00:00 15.8 0 Calma 11 Este 0 -- -- 38
2019-04-13 10:00:00 13.4 0 Calma 18 Sur 0 -- -- 40
2019-04-13 09:00:00 7.3 3 Sur 15 Sur 0 -- -- 90
2019-04-13 08:00:00 2.2 0 Calma -- -- 0 -- -- 90
2019-04-13 07:00:00 1.9 0 Calma -- -- 0 -- -- 90
2019-04-13 06:00:00 2.4 0 Calma -- -- 0 -- -- 90
2019-04-13 05:00:00 3 0 Calma -- -- 0 -- -- 90
2019-04-13 04:00:00 3 0 Calma -- -- 0 -- -- 90
2019-04-13 03:00:00 3.4 0 Calma -- -- 0 -- -- 89
2019-04-13 02:00:00 4.3 0 Calma -- -- 0 -- -- 89
2019-04-13 01:00:00 5.1 0 Calma -- -- 0 -- -- 89
2019-04-13 00:00:00 5.7 0 Calma -- -- 0 -- -- 88
2019-04-12 23:00:00 6.4 0 Calma -- -- 0 -- -- 86
2019-04-12 22:00:00 8 0 Calma 6 Este 0 -- -- 84
2019-04-12 21:00:00 9.4 0 Calma 6 Sur 0 -- -- 81
2019-04-12 20:00:00 11.3 0 Calma 6 Sudoeste 0 -- -- 76
2019-04-12 19:00:00 11.9 0 Calma 9 Sur 0 -- -- 70
2019-04-12 18:00:00 12.2 0 Calma 12 Sur 0 -- -- 68
2019-04-12 17:00:00 13 0 Calma 10 Sur 0 -- -- 63
2019-04-12 16:00:00 12.7 2 Sudeste 10 Sur 0 -- -- 73
2019-04-12 15:00:00 12 0 Calma 16 Sudeste 0 -- -- 78
2019-04-12 14:00:00 12.5 4 Sur 13 Sudoeste 0 -- -- 77
2019-04-12 13:00:00 13 0 Calma 8 Sur 0 -- -- 71
2019-04-12 12:00:00 12.8 0 Calma 9 Oeste 0.9 -- -- 73
2019-04-12 11:00:00 13.5 0 Calma 9 Sudoeste 0 -- -- 57
2019-04-12 10:00:00 11 0 Calma 4 Oeste 0 -- -- 67
2019-04-12 09:00:00 9.4 0 Calma 11 Sudoeste 0 -- -- 82
2019-04-12 08:00:00 7.5 0 Calma -- -- 0 -- -- 89
2019-04-12 07:00:00 7.7 0 Calma 11 Sudoeste 0 -- -- 89
2019-04-12 06:00:00 8 0 Calma 9 Sur 0 -- -- 89
2019-04-12 05:00:00 8.2 0 Calma -- -- 0 -- -- 89
2019-04-12 04:00:00 8.3 0 Calma 3 Este 0 -- -- 87
2019-04-12 03:00:00 8.8 0 Calma 19 Sudoeste 0 -- -- 83
2019-04-12 02:00:00 8.5 3 Sudeste 25 Sudeste 0 -- -- 83
2019-04-12 01:00:00 6.5 0 Calma 15 Oeste 0.1 -- -- 88
2019-04-12 00:00:00 6.9 0 Calma 5 Sudeste 0.4 -- -- 86
2019-04-11 23:00:00 7.4 0 Calma -- -- 0.1 -- -- 74
2019-04-11 22:00:00 7.6 0 Calma -- -- 0 -- -- 65
2019-04-11 21:00:00 9.5 0 Calma 8 Sur 0 -- -- 52
2019-04-11 20:00:00 11.7 0 Calma 16 Sudeste 0 -- -- 43
2019-04-11 19:00:00 12.7 4 Sur 19 Este 0 -- -- 38
2019-04-11 18:00:00 13.1 4 Sur 21 Sur 0 -- -- 37
2019-04-11 17:00:00 14.1 4 Sur 17 Sudeste 0 -- -- 46
2019-04-11 16:00:00 15 4 Sudeste 20 Sur 0 -- -- 42
2019-04-11 15:00:00 15.7 6 Sur 21 Sudeste 0 -- -- 47
2019-04-11 14:00:00 15.1 4 Sur 24 Sur 0 -- -- 46
2019-04-11 13:00:00 15.3 6 Sur 18 Sudeste 0 -- -- 56
2019-04-11 12:00:00 13.2 4 Sur 15 Sudeste 0 -- -- 68
2019-04-11 11:00:00 13.9 4 Sur 14 Sur 0 -- -- 67
2019-04-11 10:00:00 11.6 0 Calma 6 Nordeste 0 -- -- 72
2019-04-11 09:00:00 9.1 0 Calma -- -- 0 -- -- 89
2019-04-11 08:00:00 7.2 0 Calma -- -- 0 -- -- 89
2019-04-11 07:00:00 6.5 0 Calma 2 Sur 0 -- -- 89
2019-04-11 06:00:00 6.4 0 Calma 9 Sudeste 0 -- -- 87
2019-04-11 05:00:00 5.3 0 Calma -- -- 0 -- -- 87
2019-04-11 04:00:00 6.2 0 Calma 12 Oeste 0 -- -- 86
2019-04-11 03:00:00 5.7 0 Calma 6 Sudeste 0 -- -- 88
2019-04-11 02:00:00 6.2 0 Calma 5 Sudeste 0 -- -- 88
2019-04-11 01:00:00 7 0 Calma -- -- 0 -- -- 88
2019-04-11 00:00:00 6.8 0 Calma 4 Sudeste 0 -- -- 88
2019-04-10 23:00:00 6.8 0 Calma -- -- 0 -- -- 85
2019-04-10 22:00:00 7.2 0 Calma -- -- 0 -- -- 82
2019-04-10 21:00:00 8.6 0 Calma 8 Sudeste 0 -- -- 74
2019-04-10 20:00:00 10.4 0 Calma 13 Sudeste 0 -- -- 58
2019-04-10 19:00:00 12.2 5 Sudoeste 19 Sudoeste 0 -- -- 50
2019-04-10 18:00:00 13 8 Sudoeste 17 Sudoeste 0 -- -- 45
2019-04-10 17:00:00 12.9 4 Sur 26 Sur 0 -- -- 46
2019-04-10 16:00:00 13.2 5 Sur 24 Sur 0 -- -- 58
2019-04-10 15:00:00 12.5 4 Sur 14 Sudeste 0 -- -- 61
2019-04-10 14:00:00 11.4 2 Sur 12 Sur 0 -- -- 71
2019-04-10 13:00:00 10.3 3 Sudeste 19 Sur 0 -- -- 73
2019-04-10 12:00:00 10.5 4 Sur 15 Sur 0 -- -- 76
2019-04-10 11:00:00 9.5 3 Sudeste 15 Sur 0 -- -- 83
2019-04-10 10:00:00 9 0 Calma 13 Sudeste 0 -- -- 90
2019-04-10 09:00:00 7.9 0 Calma 8 Sudeste 0 -- -- 90
2019-04-10 08:00:00 7.1 0 Calma 9 Sur 0 -- -- 90
2019-04-10 07:00:00 6.9 0 Calma -- -- -- -- -- 89
2019-04-10 06:00:00 8.7 8 Este 20 Noroeste 2.5 -- -- 89
2019-04-10 05:00:00 6.3 0 Calma -- -- 0 -- -- 87
2019-04-10 04:00:00 6.2 0 Calma -- -- 0 -- -- 85
2019-04-10 03:00:00 6.8 0 Calma 7 Sudoeste 0 -- -- 80
2019-04-10 02:00:00 7.2 0 Calma 11 Sur 0 -- -- 72
2019-04-10 01:00:00 9 2 Sudoeste 22 Noroeste 0 -- -- 58
2019-04-10 00:00:00 10.8 16 Oeste 39 Oeste 0 -- -- 54
2019-04-09 23:00:00 10.2 14 Oeste 40 Oeste 0 -- -- 58
2019-04-09 22:00:00 8 2 Oeste 23 Sudoeste 0 -- -- 62
2019-04-09 21:00:00 7.2 6 Sudoeste 27 Sudoeste 0 -- -- 77
2019-04-09 20:00:00 8.6 0 Calma 5 Sur 0 -- -- 68
2019-04-09 19:00:00 11.4 0 Calma 17 Oeste 0 -- -- 50
2019-04-09 18:00:00 12.6 4 Sudoeste 19 Sudoeste 0 -- -- 49
2019-04-09 17:00:00 13.6 4 Sur 19 Sudeste 0 -- -- 52
2019-04-09 16:00:00 12.7 3 Sudeste 17 Este 0 -- -- 63
2019-04-09 15:00:00 12.4 5 Sur 23 Sudeste 0.1 -- -- 68
2019-04-09 14:00:00 10.8 4 Sur 23 Sudeste 0 -- -- 78
2019-04-09 13:00:00 10.3 2 Sudeste 22 Sur 0 -- -- 82
2019-04-09 12:00:00 11.1 3 Sudeste 20 Sudeste 0 -- -- 78
2019-04-09 11:00:00 11.4 2 Sudeste 19 Este 0 -- -- 77
2019-04-09 10:00:00 10 0 Calma 34 Sudoeste 10.3 -- -- 86
2019-04-09 09:00:00 13.6 4 Sur 26 Sur 0 -- -- 59
2019-04-09 08:00:00 8.4 0 Calma 36 Sudoeste 0 -- -- 81
2019-04-09 07:00:00 7 0 Calma 8 Sudoeste 0 -- -- 88
2019-04-09 06:00:00 6.6 0 Calma 4 Norte 0 -- -- 86
2019-04-09 05:00:00 7.2 0 Calma 5 Este 0 -- -- 87
2019-04-09 04:00:00 7 0 Calma 8 Este 0 -- -- 86
2019-04-09 03:00:00 7 0 Calma 10 Sur 0 -- -- 85
2019-04-09 02:00:00 6.8 0 Calma -- -- 0 -- -- 86
2019-04-09 01:00:00 7 0 Calma 5 Sudeste 0 -- -- 86
2019-04-09 00:00:00 7.1 0 Calma -- -- 0 -- -- 84
2019-04-08 23:00:00 7.5 0 Calma -- -- 0 -- -- 80
2019-04-08 22:00:00 8.4 0 Calma 0 Calma 0 -- -- 76
2019-04-08 21:00:00 10.2 0 Calma 4 Sur 0 -- -- 67
2019-04-08 20:00:00 12.1 0 Calma 10 Sudeste 0 -- -- 58
2019-04-08 19:00:00 13.9 3 Sur 19 Sur 0 -- -- 48
2019-04-08 18:00:00 14.9 0 Calma 17 Sudeste 0 -- -- 47
2019-04-08 17:00:00 16.4 5 Sur 18 Sudoeste 0 -- -- 44
2019-04-08 16:00:00 15.5 4 Sur 18 Este 0 -- -- 49
2019-04-08 15:00:00 16.1 3 Sur 20 Sur 0 -- -- 52
2019-04-08 14:00:00 15.5 4 Sur 21 Sudoeste 0 -- -- 53
2019-04-08 13:00:00 13.5 3 Sudeste 23 Oeste 0 -- -- 54
2019-04-08 12:00:00 14.8 3 Sudoeste 22 Oeste 0 -- -- 45
2019-04-08 11:00:00 14.7 0 Calma 15 Norte 0 -- -- 40
2019-04-08 10:00:00 12 3 Sudoeste 17 Oeste 0 -- -- 48
2019-04-08 09:00:00 9.4 10 Sudoeste 26 Oeste 0 -- -- 83
2019-04-08 08:00:00 3.4 0 Calma -- -- 0 -- -- 90
2019-04-08 07:00:00 1.2 0 Calma -- -- 0 -- -- 90
2019-04-08 06:00:00 0.4 0 Calma -- -- 0 -- -- 90
2019-04-08 05:00:00 0.6 0 Calma -- -- 0 -- -- 90
2019-04-08 04:00:00 0.7 0 Calma -- -- 0 -- -- 90
2019-04-08 03:00:00 1.1 0 Calma -- -- 0 -- -- 90
2019-04-08 02:00:00 1.7 0 Calma -- -- 0 -- -- 90
2019-04-08 01:00:00 2.4 0 Calma -- -- 0 -- -- 89
2019-04-08 00:00:00 2.8 0 Calma -- -- 0 -- -- 88
2019-04-07 23:00:00 3.7 0 Calma -- -- 0 -- -- 87
2019-04-07 22:00:00 4.8 0 Calma -- -- 0 -- -- 84
2019-04-07 21:00:00 6.4 0 Calma 5 Sur 0 -- -- 79
2019-04-07 20:00:00 8.4 2 Sudeste 13 Sudeste 0 -- -- 71
2019-04-07 19:00:00 9.4 3 Sudeste 18 Sudeste 0 -- -- 67
2019-04-07 18:00:00 9.6 4 Sur 20 Sudeste 0 -- -- 66
2019-04-07 17:00:00 9.2 5 Sur 32 Sudeste 0 -- -- 67
2019-04-07 16:00:00 9.2 5 Sudeste 28 Sur 0 -- -- 67
2019-04-07 15:00:00 9.5 5 Sudeste 28 Este 0 -- -- 67
2019-04-07 14:00:00 9.4 7 Sur 26 Sur 0 -- -- 68
2019-04-07 13:00:00 9.1 6 Sudeste 32 Sudeste 0 -- -- 66
2019-04-07 12:00:00 10.5 7 Sur 30 Sur 0 -- -- 63
2019-04-07 11:00:00 9.6 5 Sur 32 Sur 0 -- -- 68
2019-04-07 10:00:00 8.4 7 Sudeste 22 Sudeste 0 -- -- 71
2019-04-07 09:00:00 8.4 4 Sur 23 Sudeste 0 -- -- 72
2019-04-07 08:00:00 8.1 2 Sudeste 27 Sur 0 -- -- 74
2019-04-07 07:00:00 8.3 5 Sudeste 27 Sur 0 -- -- 74
2019-04-07 06:00:00 8.2 3 Sudoeste 23 Sudoeste 0 -- -- 77
2019-04-07 05:00:00 8.1 3 Sur 21 Sudeste 0 -- -- 77
2019-04-07 04:00:00 7.9 3 Sudeste 24 Oeste 0 -- -- 72
2019-04-07 03:00:00 7.7 2 Sudoeste 23 Sur 0 -- -- 67
2019-04-07 02:00:00 7.8 7 Oeste 23 Sudoeste 0 -- -- 62
2019-04-07 01:00:00 6.2 8 Sudoeste 19 Sudoeste 0 -- -- 74
2019-04-07 00:00:00 4.5 3 Sudoeste 19 Sudoeste 0 -- -- 85
2019-04-06 23:00:00 4.6 0 Calma 8 Sur 0 -- -- 83
2019-04-06 22:00:00 5.5 0 Calma 17 Oeste 0 -- -- 79
2019-04-06 21:00:00 6.6 0 Calma 18 Sudoeste 0 -- -- 70
2019-04-06 20:00:00 9 0 Calma 18 Noroeste 0 -- -- 60
2019-04-06 19:00:00 9.8 0 Calma 23 Oeste 0 -- -- 55
2019-04-06 18:00:00 10.2 2 Este 18 Sudoeste 0 -- -- 52
2019-04-06 17:00:00 9.9 2 Sur 22 Sudoeste 0 -- -- 53
2019-04-06 16:00:00 11 3 Sur 31 Sudoeste 0 -- -- 51
2019-04-06 15:00:00 11.6 2 Oeste 24 Oeste 0 -- -- 51
2019-04-06 14:00:00 11 4 Este 24 Noroeste 0 -- -- 58
2019-04-06 13:00:00 10 4 Sudeste 19 Sudeste 0 -- -- 61
2019-04-06 12:00:00 10.8 3 Sur 27 Sur 0 -- -- 55
2019-04-06 11:00:00 9.6 2 Sur 19 Sudoeste 0 -- -- 62
2019-04-06 10:00:00 7.8 2 Sur 12 Sur 0.2 -- -- 84
2019-04-06 09:00:00 7.5 2 Sur 27 Sur 0 -- -- 79
2019-04-06 08:00:00 7.6 6 Sur 23 Sur 0 -- -- 75
2019-04-06 07:00:00 6.3 4 Sudoeste 23 Noroeste 0 -- -- 79
2019-04-06 06:00:00 5.8 0 Calma 24 Noroeste 0 -- -- 87
2019-04-06 05:00:00 5.9 12 Oeste 26 Oeste 0 -- -- 88
2019-04-06 04:00:00 6.1 0 Calma 19 Oeste 4.4 -- -- 89
2019-04-06 03:00:00 6.8 0 Calma 11 Oeste 0.5 -- -- 86
2019-04-06 02:00:00 7.4 4 Oeste 27 Oeste 0 -- -- 72
2019-04-06 01:00:00 8.7 9 Oeste 32 Oeste 0 -- -- 73
2019-04-06 00:00:00 9.3 7 Sudeste 21 Sur 0 -- -- 85
2019-04-05 23:00:00 9.8 2 Sudeste 22 Sudeste 2 -- -- 87
2019-04-05 22:00:00 9.8 4 Sudeste 22 Sur 0.8 -- -- 85
2019-04-05 21:00:00 10.2 8 Sur 42 Sudoeste 0 -- -- 80
2019-04-05 20:00:00 10 6 Sur 44 Sur 0 -- -- 84
2019-04-05 19:00:00 9.9 13 Sur 42 Sudoeste 1.5 -- -- 82
2019-04-05 18:00:00 10.1 5 Sur 30 Sudoeste 0.9 -- -- 86
2019-04-05 17:00:00 11 3 Sudeste 27 Sudoeste 0 -- -- 69
2019-04-05 16:00:00 12.1 7 Sur 31 Sudoeste 0 -- -- 56
2019-04-05 15:00:00 13 8 Sur 36 Sur 0 -- -- 43
2019-04-05 14:00:00 14.4 11 Sur 31 Sur 0 -- -- 39
2019-04-05 13:00:00 15.4 12 Sur 27 Sur 0 -- -- 36
2019-04-05 12:00:00 15.1 9 Sur 27 Sur 0 -- -- 36
2019-04-05 11:00:00 13.3 9 Sur 25 Sur 0 -- -- 38
2019-04-05 10:00:00 11.8 5 Sur 18 Sur 0 -- -- 37
2019-04-05 09:00:00 4.3 0 Calma 8 Sudeste 0 -- -- 66
2019-04-05 08:00:00 -1.1 0 Calma -- -- 0 -- -- 79
2019-04-05 07:00:00 -1.1 0 Calma 4 Sudeste 0 -- -- 78
2019-04-05 06:00:00 -0.5 0 Calma 9 Sudeste 0 -- -- 79
2019-04-05 05:00:00 0.2 0 Calma -- -- 0 -- -- 81
2019-04-05 04:00:00 1.5 0 Calma -- -- 0 -- -- 75
2019-04-05 03:00:00 3.1 0 Calma 12 Sudoeste 0 -- -- 68
2019-04-05 02:00:00 5.6 3 Sur 23 Sur 0 -- -- 68
2019-04-05 01:00:00 5 3 Este 12 Este 0 -- -- 70
2019-04-05 00:00:00 5 0 Calma 16 Sur 0 -- -- 68
2019-04-04 23:00:00 5.4 3 Este 11 Sudeste 0 -- -- 71
2019-04-04 22:00:00 4.6 2 Este 12 Sur 0 -- -- 64
2019-04-04 21:00:00 3.9 0 Calma 8 Sur 0 -- -- 58
2019-04-04 20:00:00 5.4 0 Calma 8 Sudoeste 0 -- -- 49
2019-04-04 19:00:00 8.2 0 Calma 16 Sur 0 -- -- 41
2019-04-04 18:00:00 9.6 3 Sur 18 Sudeste 0 -- -- 43
2019-04-04 17:00:00 10 4 Sur 16 Este 0 -- -- 40
2019-04-04 16:00:00 11.2 3 Sur 17 Este 0 -- -- 39
2019-04-04 15:00:00 10.7 4 Sur 21 Sur 0 -- -- 46
2019-04-04 14:00:00 10.7 6 Sur 23 Sudoeste 0 -- -- 48
2019-04-04 13:00:00 10.1 5 Sur 27 Sudeste 0 -- -- 47
2019-04-04 12:00:00 10.5 5 Sudeste 23 Sudoeste 0 -- -- 50
2019-04-04 11:00:00 9.7 5 Sudeste 23 Sur 0 -- -- 52
2019-04-04 10:00:00 6.6 4 Sudeste 21 Sudeste 0 -- -- 73
2019-04-04 09:00:00 6.8 4 Sudeste 20 Sudeste 0 -- -- 74
2019-04-04 08:00:00 6.4 0 Calma 14 Sur 0 -- -- 77
2019-04-04 07:00:00 6.2 4 Sudoeste 16 Sudoeste 0 -- -- 79
2019-04-04 06:00:00 6.5 5 Sur 15 Sur 0.1 -- -- 77
2019-04-04 05:00:00 6.3 3 Sur 15 Sur 0 -- -- 76
2019-04-04 04:00:00 6.1 3 Sudoeste 21 Oeste 0 -- -- 76
2019-04-04 03:00:00 6.5 4 Sur 15 Sur 0 -- -- 86
2019-04-04 02:00:00 6.8 4 Sudeste 16 Sudeste 0 -- -- 89
2019-04-04 01:00:00 7.4 0 Calma 17 Este 0.4 -- -- 89
2019-04-04 00:00:00 7.8 4 Este 25 Sudoeste 0.4 -- -- 89
2019-04-03 23:00:00 8.7 6 Sudeste 28 Sudoeste 1.5 -- -- 87
2019-04-03 22:00:00 12.2 2 Sur 13 Oeste 0 -- -- 78
2019-04-03 21:00:00 12.3 0 Calma 21 Sur 0 -- -- 64
2019-04-03 20:00:00 12.9 5 Sur 15 Sur 0 -- -- 67
2019-04-03 19:00:00 14 6 Sur 21 Sur 0 -- -- 62
2019-04-03 18:00:00 14.9 8 Sur 22 Sur 0 -- -- 58
2019-04-03 17:00:00 15.9 5 Sudeste 25 Sudoeste 0 -- -- 56
2019-04-03 16:00:00 17 7 Sur 36 Sudoeste 0 -- -- 51
2019-04-03 15:00:00 17.2 9 Sur 33 Sur 0 -- -- 51
2019-04-03 14:00:00 17.5 12 Sur 33 Sudoeste 0 -- -- 47
2019-04-03 13:00:00 18.9 5 Sur 27 Sur 0 -- -- 43
2019-04-03 12:00:00 17.8 3 Sur 22 Sur 0 -- -- 47
2019-04-03 11:00:00 16.3 4 Sudeste 33 Sudoeste 0 -- -- 55
2019-04-03 10:00:00 14.1 6 Sudoeste 24 Sudoeste 0 -- -- 64
2019-04-03 09:00:00 9.5 0 Calma 6 Oeste 0 -- -- 90
2019-04-03 08:00:00 4.2 0 Calma 6 Sudoeste 0 -- -- 90
2019-04-03 07:00:00 4.3 0 Calma -- -- 0 -- -- 90
2019-04-03 06:00:00 4.7 0 Calma -- -- 0 -- -- 90
2019-04-03 05:00:00 5.1 0 Calma -- -- 0 -- -- 90
2019-04-03 04:00:00 6.1 0 Calma 7 Nordeste 0 -- -- 90
2019-04-03 03:00:00 5.1 0 Calma -- -- 0 -- -- 89
2019-04-03 02:00:00 5.5 0 Calma -- -- 0 -- -- 89
2019-04-03 01:00:00 6 0 Calma -- -- 0 -- -- 89
2019-04-03 00:00:00 7.3 0 Calma 11 Sudeste 0 -- -- 89
2019-04-02 23:00:00 8.3 0 Calma -- -- 0 -- -- 89
2019-04-02 22:00:00 8.4 0 Calma -- -- 0 -- -- 86
2019-04-02 21:00:00 10 0 Calma 0 Calma 0 -- -- 84
2019-04-02 20:00:00 11.7 0 Calma 15 Sudeste 0 -- -- 80
2019-04-02 19:00:00 12.8 4 Sur 16 Sudeste 0 -- -- 73
2019-04-02 18:00:00 13.9 4 Sudeste 12 Sudeste 0 -- -- 68
2019-04-02 17:00:00 13.9 0 Calma 7 Este 0 -- -- 68
2019-04-02 16:00:00 14.3 0 Calma 8 Nordeste 0 -- -- 67
2019-04-02 15:00:00 13.8 0 Calma 8 Este 0 -- -- 67
2019-04-02 14:00:00 15.4 4 Sur 14 Sudoeste 0 -- -- 53
2019-04-02 13:00:00 18.6 3 Sudoeste 14 Oeste 0 -- -- 39
2019-04-02 12:00:00 16 0 Calma 10 Este 0 -- -- 46
2019-04-02 11:00:00 15.6 2 Oeste 8 Oeste 0 -- -- 44
2019-04-02 10:00:00 12.3 0 Calma 0 Calma 0 -- -- 68
2019-04-02 09:00:00 5.7 0 Calma -- -- 0 -- -- 90
2019-04-02 08:00:00 2.6 0 Calma 6 Sudeste 0 -- -- 90
2019-04-02 07:00:00 2.6 0 Calma -- -- 0 -- -- 90
2019-04-02 06:00:00 2.8 0 Calma -- -- 0 -- -- 90
2019-04-02 05:00:00 3.4 0 Calma -- -- 0 -- -- 89
2019-04-02 04:00:00 4.1 0 Calma -- -- 0 -- -- 89
2019-04-02 03:00:00 4.6 0 Calma -- -- 0 -- -- 89
2019-04-02 02:00:00 4.1 0 Calma -- -- 0 -- -- 87
2019-04-02 01:00:00 4.8 0 Calma -- -- 0 -- -- 85
2019-04-02 00:00:00 5.8 0 Calma -- -- 0 -- -- 82
2019-04-01 23:00:00 7.2 0 Calma 0 Calma 0 -- -- 79
2019-04-01 22:00:00 8.9 0 Calma -- -- 0 -- -- 74
2019-04-01 21:00:00 10.2 0 Calma 5 Sudeste 0 -- -- 68
2019-04-01 20:00:00 11.4 0 Calma 10 Sudeste 0 -- -- 58
2019-04-01 19:00:00 12 0 Calma 8 Este 0 -- -- 54
2019-04-01 18:00:00 12.9 0 Calma 13 Sudoeste 0 -- -- 48
2019-04-01 17:00:00 14 3 Sur 16 Sur 0 -- -- 48
2019-04-01 16:00:00 15.1 3 Sur 16 Sur 0 -- -- 43
2019-04-01 15:00:00 14.2 0 Calma 9 Sudeste 0 -- -- 40
2019-04-01 14:00:00 13.5 2 Sudeste 14 Sur 0 -- -- 41
2019-04-01 13:00:00 13 5 Sudeste 16 Sudeste 0 -- -- 43
2019-04-01 12:00:00 13.9 5 Este 15 Sur 0 -- -- 47
2019-04-01 11:00:00 11.7 5 Sur 17 Sudeste 0 -- -- 46
2019-04-01 10:00:00 10.4 5 Sudeste 19 Sudeste 0 -- -- 56
2019-04-01 09:00:00 9.6 3 Sudeste 14 Sur 0 -- -- 84
2019-04-01 08:00:00 9.1 4 Sudeste 14 Sudeste 0 -- -- 86
2019-04-01 07:00:00 9 4 Sur 12 Sur 0 -- -- 86
2019-04-01 06:00:00 9.1 3 Sur 22 Sur 0 -- -- 86
2019-04-01 05:00:00 9.2 6 Sur 19 Sur 0 -- -- 86
2019-04-01 04:00:00 9 5 Sur 17 Sur 0 -- -- 82
2019-04-01 03:00:00 9.2 5 Sudeste 17 Sudeste 0 -- -- 86
2019-04-01 02:00:00 9.3 7 Sudeste 25 Sudeste 0 -- -- 84
2019-04-01 01:00:00 9.4 4 Sudeste 19 Sudoeste 0 -- -- 85
2019-04-01 00:00:00 9.6 9 Sudeste 25 Sudeste 0 -- -- 82
2019-03-31 23:00:00 9.9 3 Sudeste 21 Sur 0.1 -- -- 80
2019-03-31 22:00:00 10.2 7 Sudeste 20 Sudeste 0 -- -- 89
2019-03-31 21:00:00 10.5 6 Sudeste 14 Sudeste 0.1 -- -- 89
2019-03-31 20:00:00 10.7 6 Sudeste 21 Sudeste 0.3 -- -- 89
2019-03-31 19:00:00 11.1 6 Sudeste 21 Sudeste 0 -- -- 88
2019-03-31 18:00:00 11.5 6 Sudeste 20 Sur 0 -- -- 84
2019-03-31 17:00:00 11.6 8 Sudeste 34 Sudeste 0 -- -- 84
2019-03-31 16:00:00 12 9 Sudeste 30 Sudeste 0 -- -- 81
2019-03-31 15:00:00 13.3 12 Sudeste 29 Sudeste 0 -- -- 71
2019-03-31 14:00:00 14.9 10 Sudeste 31 Sur 0 -- -- 59
2019-03-31 13:00:00 15.3 9 Sudeste 27 Este 0 -- -- 51
2019-03-31 12:00:00 15 9 Sur 26 Sur 0 -- -- 50
2019-03-31 11:00:00 13.8 10 Sudeste 26 Sudeste 0 -- -- 46
2019-03-31 10:00:00 13.1 10 Sudeste 30 Sudeste 0 -- -- 48
2019-03-31 09:00:00 11.4 9 Sudeste 24 Sudeste 0 -- -- 58
2019-03-31 08:00:00 9.2 7 Sudeste 20 Sudeste 0 -- -- 80
2019-03-31 07:00:00 9.1 5 Sudeste 14 Sudeste 0 -- -- 77
2019-03-31 06:00:00 8.6 5 Sudeste 17 Sudeste 0 -- -- 81
2019-03-31 05:00:00 7.5 3 Este 10 Sur 0 -- -- 80
2019-03-31 03:00:00 8.3 3 Este 18 Sudeste 0 -- -- 87
2019-03-31 01:00:00 8.8 7 Sudeste 17 Este 0 -- -- 88
2019-03-31 00:00:00 8.9 6 Sudeste 19 Sur 0 -- -- 88
2019-03-30 23:00:00 8.3 0 Calma 10 Sudeste 0 -- -- 84
2019-03-30 22:00:00 9.9 5 Sur 13 Sudoeste 0 -- -- 84
2019-03-30 21:00:00 10.1 2 Sudeste 17 Sudeste 0 -- -- 82
2019-03-30 20:00:00 10 8 Sudeste 22 Sudeste 0 -- -- 82
2019-03-30 19:00:00 10.2 6 Sudeste 17 Sur 0 -- -- 79
2019-03-30 18:00:00 10.8 7 Sudeste 21 Sudeste 0 -- -- 71
2019-03-30 17:00:00 11.5 4 Este 18 Este 0 -- -- 72
2019-03-30 16:00:00 12.2 7 Este 26 Este 0 -- -- 67
2019-03-30 15:00:00 13.3 5 Sudeste 18 Sur 0 -- -- 56
2019-03-30 14:00:00 14.9 6 Sudeste 18 Sudeste 0 -- -- 51
2019-03-30 13:00:00 14 6 Este 22 Sur 0 -- -- 51
2019-03-30 12:00:00 15.1 5 Sur 24 Sudoeste 0 -- -- 47
2019-03-30 11:00:00 14.4 5 Sur 21 Este 0 -- -- 49
2019-03-30 10:00:00 11.3 5 Sudeste 18 Sudeste 0 -- -- 61
2019-03-30 09:00:00 10.8 4 Este 15 Este 0 -- -- 60
2019-03-30 08:00:00 8.6 0 Calma 10 Sudeste 0 -- -- 74
2019-03-30 07:00:00 5.1 0 Calma 6 Este 0 -- -- 82
2019-03-30 06:00:00 6.3 0 Calma 9 Sudoeste 0 -- -- 80
2019-03-30 05:00:00 6.7 0 Calma 10 Sudoeste 0 -- -- 79
2019-03-30 04:00:00 6.7 0 Calma 11 Sudoeste 0 -- -- 79
2019-03-30 03:00:00 6.5 0 Calma 13 Sur 0 -- -- 79
2019-03-30 02:00:00 7.2 3 Sudeste 12 Sudeste 0 -- -- 81
2019-03-30 01:00:00 7.4 4 Sur 15 Sudeste 0 -- -- 83
2019-03-30 00:00:00 7.1 4 Sudeste 14 Sur 0 -- -- 87
2019-03-29 23:00:00 5.3 5 Sur 13 Sur 0 -- -- 86
2019-03-29 22:00:00 3.6 0 Calma 5 Sudeste 0 -- -- 82
2019-03-29 21:00:00 4.6 0 Calma -- -- 0 -- -- 77
2019-03-29 20:00:00 6.5 0 Calma 10 Sur 0 -- -- 71
2019-03-29 19:00:00 8.7 0 Calma 11 Noroeste 0 -- -- 65
2019-03-29 18:00:00 10.3 2 Sudeste 21 Este 0 -- -- 57
2019-03-29 17:00:00 11.3 6 Nordeste 22 Este 0 -- -- 43
2019-03-29 16:00:00 12.2 9 Nordeste 20 Nordeste 0 -- -- 33
2019-03-29 15:00:00 13.2 5 Este 19 Este 0 -- -- 33
2019-03-29 14:00:00 13.8 6 Sudeste 18 Este 0 -- -- 31
2019-03-29 13:00:00 14.2 4 Sudeste 21 Nordeste 0 -- -- 32
2019-03-29 12:00:00 14.6 3 Sur 19 Sudoeste 0 -- -- 35
2019-03-29 11:00:00 14.1 2 Este 15 Sur 0 -- -- 39
2019-03-29 10:00:00 12.8 5 Sudeste 17 Sur 0 -- -- 33
2019-03-29 09:00:00 9.3 0 Calma 5 Sur 0 -- -- 71
2019-03-29 08:00:00 3 0 Calma -- -- 0 -- -- 90
2019-03-29 07:00:00 0 0 Calma -- -- 0 -- -- 90
2019-03-29 06:00:00 -0.1 0 Calma -- -- 0 -- -- 89
2019-03-29 05:00:00 0.2 0 Calma -- -- 0 -- -- 89
2019-03-29 04:00:00 0.3 0 Calma -- -- 0 -- -- 88
2019-03-29 03:00:00 0.3 0 Calma -- -- 0 -- -- 87
2019-03-29 02:00:00 0.7 0 Calma -- -- 0 -- -- 85
2019-03-29 01:00:00 1.1 0 Calma -- -- 0 -- -- 81
2019-03-29 00:00:00 1.7 0 Calma -- -- 0 -- -- 77
2019-03-28 23:00:00 2.7 0 Calma -- -- 0 -- -- 75
2019-03-28 22:00:00 4 0 Calma 5 Este 0 -- -- 74
2019-03-28 21:00:00 5.8 0 Calma 9 Este 0 -- -- 69
2019-03-28 20:00:00 6.7 0 Calma 9 Sur 0 -- -- 65
2019-03-28 19:00:00 8.7 0 Calma 14 Sur 0 -- -- 55
2019-03-28 18:00:00 10.5 6 Este 16 Este 0 -- -- 43
2019-03-28 17:00:00 11.8 0 Calma 20 Este 0 -- -- 43
2019-03-28 16:00:00 12 8 Este 20 Este 0 -- -- 38
2019-03-28 15:00:00 12.9 3 Nordeste 23 Este 0 -- -- 38
2019-03-28 14:00:00 13.8 7 Este 26 Este 0 -- -- 37
2019-03-28 13:00:00 14.2 2 Este 19 Este 0 -- -- 36
2019-03-28 12:00:00 13.5 6 Nordeste 17 Nordeste 0 -- -- 36
2019-03-28 11:00:00 13.8 0 Calma 16 Este 0 -- -- 38
2019-03-28 10:00:00 13 4 Nordeste 16 Norte 0 -- -- 38
2019-03-28 09:00:00 11.1 0 Calma 8 Sudoeste 0 -- -- 61
2019-03-28 08:00:00 5.6 0 Calma 2 Sudoeste 0 -- -- 84
2019-03-28 07:00:00 4.6 0 Calma 13 Sudoeste 0 -- -- 83
2019-03-28 06:00:00 6.3 5 Sudoeste 19 Sudoeste 0 -- -- 83
2019-03-28 05:00:00 5.8 0 Calma 11 Sudeste 0 -- -- 78
2019-03-28 04:00:00 5.1 0 Calma 13 Este 0 -- -- 65
2019-03-28 03:00:00 5 0 Calma 13 Este 0 -- -- 64
2019-03-28 02:00:00 6.6 2 Nordeste 13 Nordeste 0 -- -- 60
2019-03-28 01:00:00 5.7 2 Sudeste 20 Nordeste 0 -- -- 65
2019-03-28 00:00:00 1.8 0 Calma -- -- 0 -- -- 79
2019-03-27 23:00:00 2.2 0 Calma -- -- 0 -- -- 77
2019-03-27 22:00:00 2.9 0 Calma 5 Sudoeste 0 -- -- 77
2019-03-27 21:00:00 4.4 0 Calma 7 Sur 0 -- -- 74
2019-03-27 20:00:00 6.2 0 Calma 12 Norte 0 -- -- 68
2019-03-27 19:00:00 7.8 2 Nordeste 9 Nordeste 0 -- -- 58
2019-03-27 18:00:00 9.2 4 Sudoeste 15 Sudoeste 0 -- -- 49
2019-03-27 17:00:00 10.6 2 Sur 21 Este 0 -- -- 45
2019-03-27 16:00:00 10.9 6 Este 26 Este 0 -- -- 39
2019-03-27 15:00:00 11.5 9 Este 26 Este 0 -- -- 43
2019-03-27 14:00:00 11.7 4 Nordeste 22 Este 0 -- -- 48
2019-03-27 13:00:00 11.8 6 Este 25 Sudeste 0 -- -- 52
2019-03-27 12:00:00 11.9 3 Este 25 Este 0 -- -- 54
2019-03-27 11:00:00 12.5 3 Oeste 18 Nordeste 0 -- -- 54
2019-03-27 10:00:00 10.7 0 Calma 17 Noroeste 0 -- -- 63
2019-03-27 09:00:00 9.9 3 Noroeste 18 Nordeste 0 -- -- 66
2019-03-27 08:00:00 10 2 Norte 20 Noroeste 0 -- -- 64
2019-03-27 07:00:00 7.8 4 Este 19 Este 0 -- -- 64
2019-03-27 06:00:00 8.1 9 Este 27 Este 0 -- -- 63
2019-03-27 05:00:00 8.3 11 Nordeste 35 Este 0 -- -- 64
2019-03-27 04:00:00 7.9 3 Este 17 Este 0 -- -- 60
2019-03-27 03:00:00 8 5 Este 19 Este 0 -- -- 60
2019-03-27 02:00:00 7.2 0 Calma 17 Nordeste 0 -- -- 58
2019-03-27 01:00:00 7.4 0 Calma 18 Nordeste 0 -- -- 55
2019-03-27 00:00:00 7.9 3 Sudeste 19 Nordeste 0 -- -- 49
2019-03-26 23:00:00 6.8 0 Calma 16 Oeste 0 -- -- 51
2019-03-26 22:00:00 6.1 2 Noroeste 14 Oeste 0 -- -- 56
2019-03-26 21:00:00 5.5 0 Calma 15 Sudoeste 0 -- -- 54
2019-03-26 20:00:00 5.7 0 Calma 10 Sur 0 -- -- 55
2019-03-26 19:00:00 7.1 0 Calma 14 Sur 0 -- -- 57
2019-03-26 18:00:00 7.9 4 Norte 18 Norte 0 -- -- 56
2019-03-26 17:00:00 8.4 4 Nordeste 29 Este 0 -- -- 54
2019-03-26 16:00:00 8.9 9 Este 30 Sudeste 0 -- -- 49
2019-03-26 15:00:00 9.1 3 Nordeste 39 Norte 0 -- -- 48
2019-03-26 14:00:00 10.1 6 Nordeste 38 Noroeste 0 -- -- 43
2019-03-26 13:00:00 10.1 6 Nordeste 42 Este 0 -- -- 41
2019-03-26 12:00:00 10.5 3 Nordeste 40 Este 0 -- -- 37
2019-03-26 11:00:00 10.9 7 Nordeste 33 Nordeste 0 -- -- 30
2019-03-26 10:00:00 10.8 3 Este 34 Nordeste 0 -- -- 29
2019-03-26 09:00:00 9.9 10 Este 33 Norte 0 -- -- 31
2019-03-26 08:00:00 8.8 2 Este 27 Nordeste 0 -- -- 35
2019-03-26 07:00:00 8.6 2 Sudeste 27 Norte 0 -- -- 51
2019-03-26 06:00:00 6.4 0 Calma 5 Nordeste 0 -- -- 89
2019-03-26 05:00:00 5.2 0 Calma 10 Nordeste 0 -- -- 89
2019-03-26 04:00:00 3.3 0 Calma 5 Sudeste 0 -- -- 89
2019-03-26 03:00:00 3.3 0 Calma -- -- 0 -- -- 89
2019-03-26 02:00:00 3.7 0 Calma -- -- 0 -- -- 88
2019-03-26 01:00:00 4.3 0 Calma -- -- 0 -- -- 88
2019-03-26 00:00:00 4.7 0 Calma -- -- 0 -- -- 87
2019-03-25 23:00:00 5.2 0 Calma -- -- 0 -- -- 85
2019-03-25 22:00:00 6.2 0 Calma -- -- 0 -- -- 82
2019-03-25 21:00:00 7.4 0 Calma -- -- 0 -- -- 77
2019-03-25 20:00:00 9.3 0 Calma 9 Este 0 -- -- 71
2019-03-25 19:00:00 11.2 0 Calma 6 Sudoeste 0 -- -- 61
2019-03-25 18:00:00 13.5 2 Sudoeste 12 Sur 0 -- -- 50
2019-03-25 17:00:00 14.6 6 Sudeste 19 Sur 0 -- -- 48
2019-03-25 16:00:00 15.6 7 Sur 22 Sur 0 -- -- 45
2019-03-25 15:00:00 16 8 Sudeste 22 Sur 0 -- -- 42
2019-03-25 14:00:00 16.2 8 Sudeste 21 Sudoeste 0 -- -- 38
2019-03-25 13:00:00 17.1 4 Sudeste 19 Sudeste 0 -- -- 38
2019-03-25 12:00:00 17.9 8 Este 19 Este 0 -- -- 36
2019-03-25 11:00:00 17.5 3 Este 14 Nordeste 0 -- -- 34
2019-03-25 10:00:00 16 3 Oeste 24 Noroeste 0 -- -- 36
2019-03-25 09:00:00 14.9 0 Calma 12 Sudoeste 0 -- -- 41
2019-03-25 08:00:00 7.9 0 Calma 12 Sur 0 -- -- 75
2019-03-25 07:00:00 2.5 0 Calma 4 Sudeste 0 -- -- 86
2019-03-25 06:00:00 1.9 0 Calma -- -- 0 -- -- 86
2019-03-25 05:00:00 1.5 0 Calma -- -- 0 -- -- 87
2019-03-25 04:00:00 1.4 0 Calma -- -- 0 -- -- 87
2019-03-25 03:00:00 1.9 0 Calma -- -- 0 -- -- 86
2019-03-25 02:00:00 2.2 0 Calma -- -- 0 -- -- 86
2019-03-25 01:00:00 2.4 0 Calma -- -- 0 -- -- 84
2019-03-25 00:00:00 3.1 0 Calma -- -- 0 -- -- 83
2019-03-24 23:00:00 3.9 0 Calma -- -- 0 -- -- 82
2019-03-24 22:00:00 5.1 0 Calma -- -- 0 -- -- 80
2019-03-24 21:00:00 6.8 0 Calma -- -- 0 -- -- 78
2019-03-24 20:00:00 8.8 0 Calma 0 Calma 0 -- -- 71
2019-03-24 19:00:00 11.5 0 Calma 10 Sur 0 -- -- 59
2019-03-24 18:00:00 13.8 2 Sudoeste 9 Sudoeste 0 -- -- 54
2019-03-24 17:00:00 15.8 2 Sudoeste 13 Oeste 0 -- -- 39
2019-03-24 16:00:00 16.3 2 Nordeste 15 Sudoeste 0 -- -- 36
2019-03-24 15:00:00 16.9 3 Nordeste 20 Este 0 -- -- 33
2019-03-24 14:00:00 18.5 3 Sudeste 12 Sur 0 -- -- 28
2019-03-24 13:00:00 19.1 0 Calma 10 Este 0 -- -- 25
2019-03-24 12:00:00 18 2 Sudeste 11 Sur 0 -- -- 25
2019-03-24 11:00:00 18.5 2 Sur 10 Sudoeste 0 -- -- 26
2019-03-24 10:00:00 17.2 0 Calma 8 Oeste 0 -- -- 36
2019-03-24 09:00:00 10.3 0 Calma -- -- 0 -- -- 79
2019-03-24 08:00:00 3.4 0 Calma -- -- 0 -- -- 89
2019-03-24 07:00:00 1.1 0 Calma -- -- 0 -- -- 89
2019-03-24 06:00:00 1.1 0 Calma -- -- 0 -- -- 89
2019-03-24 05:00:00 1.4 0 Calma -- -- 0 -- -- 89
2019-03-24 04:00:00 1.7 0 Calma -- -- 0 -- -- 89
2019-03-24 03:00:00 2.1 0 Calma -- -- 0 -- -- 89
2019-03-24 02:00:00 2.6 0 Calma -- -- 0 -- -- 88
2019-03-24 01:00:00 3 0 Calma -- -- 0 -- -- 87
2019-03-24 00:00:00 3.4 0 Calma -- -- 0 -- -- 85
2019-03-23 23:00:00 3.9 0 Calma -- -- 0 -- -- 83
2019-03-23 22:00:00 5.1 0 Calma -- -- 0 -- -- 78
2019-03-23 21:00:00 6.5 0 Calma -- -- 0 -- -- 74
2019-03-23 20:00:00 8.1 0 Calma -- -- 0 -- -- 66
2019-03-23 19:00:00 10.8 0 Calma 6 Sudeste 0 -- -- 54
2019-03-23 18:00:00 13.4 0 Calma 9 Sur 0 -- -- 42
2019-03-23 17:00:00 16.3 4 Sudoeste 13 Sur 0 -- -- 36
2019-03-23 16:00:00 17.6 2 Sur 14 Sudoeste 0 -- -- 35
2019-03-23 15:00:00 17.1 4 Este 14 Este 0 -- -- 36
2019-03-23 14:00:00 18.2 0 Calma 19 Este 0 -- -- 36
2019-03-23 13:00:00 18.1 3 Este 13 Sudeste 0 -- -- 35
2019-03-23 12:00:00 17.8 3 Sudeste 18 Sudeste 0 -- -- 35
2019-03-23 11:00:00 18.2 5 Sudeste 16 Sudeste 0 -- -- 34
2019-03-23 10:00:00 16.3 4 Sudeste 14 Sudeste 0 -- -- 41
2019-03-23 09:00:00 11 0 Calma -- -- 0 -- -- 86
2019-03-23 08:00:00 5.4 0 Calma -- -- 0 -- -- 90
2019-03-23 07:00:00 3.5 0 Calma -- -- 0 -- -- 90
2019-03-23 06:00:00 3.4 0 Calma -- -- 0 -- -- 90
2019-03-23 05:00:00 3.5 0 Calma -- -- 0 -- -- 89
2019-03-23 04:00:00 4 0 Calma -- -- 0 -- -- 89
2019-03-23 03:00:00 4.3 0 Calma -- -- 0 -- -- 89
2019-03-23 02:00:00 4.6 0 Calma -- -- 0 -- -- 89
2019-03-23 01:00:00 5.2 0 Calma -- -- 0 -- -- 87
2019-03-23 00:00:00 6.4 0 Calma -- -- 0 -- -- 84
2019-03-22 23:00:00 7.3 0 Calma -- -- 0 -- -- 83
2019-03-22 22:00:00 7.9 0 Calma -- -- 0 -- -- 84
2019-03-22 21:00:00 8.9 0 Calma 9 Sudeste 0 -- -- 78
2019-03-22 20:00:00 9.4 0 Calma 6 Sudoeste 0 -- -- 83
2019-03-22 19:00:00 10 0 Calma 15 Sudoeste 0 -- -- 79
2019-03-22 18:00:00 10.7 2 Sudoeste 20 Este 0 -- -- 75
2019-03-22 17:00:00 12 3 Nordeste 21 Nordeste 0 -- -- 67
2019-03-22 16:00:00 14 2 Sudoeste 12 Este 0 -- -- 56
2019-03-22 15:00:00 14 0 Calma 18 Sudeste 0 -- -- 49
2019-03-22 14:00:00 13.9 0 Calma 17 Nordeste 0 -- -- 50
2019-03-22 13:00:00 15.4 3 Norte 24 Norte 0 -- -- 47
2019-03-22 12:00:00 14.4 2 Nordeste 24 Este 0 -- -- 56
2019-03-22 11:00:00 13.6 0 Calma 22 Norte 0 -- -- 63
2019-03-22 10:00:00 -- 0 Calma 17 Nordeste 0 -- -- --
2019-03-22 09:00:00 11.2 4 Norte 16 Este 0 -- -- 71
2019-03-22 08:00:00 9.3 0 Calma 14 Sudoeste 0 -- -- 84
2019-03-22 07:00:00 7.8 3 Oeste 17 Sudoeste 0 -- -- 86
2019-03-22 06:00:00 7.7 5 Oeste 17 Sudoeste 0 -- -- 87
2019-03-22 05:00:00 7.2 2 Sudoeste 13 Oeste 0 -- -- 88
2019-03-22 04:00:00 7.4 0 Calma 24 Sudoeste 0 -- -- 85
2019-03-22 03:00:00 7.3 0 Calma 9 Sur 0 -- -- 85
2019-03-22 02:00:00 7.5 0 Calma 10 Sudoeste 0 -- -- 85
2019-03-22 01:00:00 7.2 0 Calma 13 Noroeste 0 -- -- 83
2019-03-22 00:00:00 7.4 0 Calma 21 Oeste 0 -- -- 82
2019-03-21 23:00:00 7.9 2 Oeste 14 Sudeste 0 -- -- 79
2019-03-21 22:00:00 7.9 0 Calma 23 Oeste 0 -- -- 77
2019-03-21 21:00:00 7.8 0 Calma 19 Sudoeste 0 -- -- 75
2019-03-21 20:00:00 7.9 0 Calma 18 Noroeste 0 -- -- 74
2019-03-21 19:00:00 7.8 0 Calma 17 Nordeste 0 -- -- 70
2019-03-21 18:00:00 8.4 2 Norte 24 Noroeste 0 -- -- 71
2019-03-21 17:00:00 8.5 5 Este 19 Norte 0 -- -- 66
2019-03-21 16:00:00 9.2 2 Nordeste 21 Norte 0 -- -- 68
2019-03-21 15:00:00 9.2 3 Norte 24 Este 0 -- -- 61
2019-03-21 14:00:00 9.5 2 Nordeste 24 Sudeste 0 -- -- 60
2019-03-21 13:00:00 8.9 2 Norte 21 Oeste 0 -- -- 63
2019-03-21 12:00:00 9.5 5 Nordeste 27 Nordeste 0 -- -- 62
2019-03-21 11:00:00 8.9 4 Norte 29 Norte 0 -- -- 62
2019-03-21 10:00:00 8.4 3 Norte 19 Nordeste 0 -- -- 71
2019-03-21 09:00:00 8.2 2 Norte 23 Noroeste 0 -- -- 71
2019-03-21 08:00:00 7.6 3 Norte 15 Noroeste 0 -- -- 73
2019-03-21 07:00:00 6.9 0 Calma 17 Norte 0 -- -- 68
2019-03-21 06:00:00 6.9 0 Calma 20 Este 0 -- -- 66
2019-03-21 05:00:00 6.9 3 Nordeste 19 Norte 0 -- -- 67
2019-03-21 04:00:00 7 5 Este 21 Sudoeste 0 -- -- 67
2019-03-21 03:00:00 6.5 3 Este 15 Norte 0 -- -- 68
2019-03-21 02:00:00 6 2 Norte 15 Sudoeste 0 -- -- 73
2019-03-21 01:00:00 4.9 0 Calma 14 Sudeste 0 -- -- 83
2019-03-21 00:00:00 5.4 0 Calma 15 Oeste 0 -- -- 83
2019-03-20 23:00:00 5.3 0 Calma 13 Noroeste 0 -- -- 88
2019-03-20 22:00:00 4.6 0 Calma 9 Sudoeste 0 -- -- 87
2019-03-20 21:00:00 5.1 2 Sudoeste 16 Sur 0 -- -- 83
2019-03-20 20:00:00 5.6 0 Calma 13 Norte 0 -- -- 82
2019-03-20 19:00:00 6.3 0 Calma 17 Oeste 0 -- -- 80
2019-03-20 18:00:00 6.7 2 Noroeste 21 Noroeste 0 -- -- 81
2019-03-20 17:00:00 6.7 3 Noroeste 21 Este 0 -- -- 82
2019-03-20 16:00:00 6.7 2 Nordeste 18 Oeste 0 -- -- 85
2019-03-20 15:00:00 6.1 3 Nordeste 21 Este 0.1 -- -- 87
2019-03-20 14:00:00 5.8 3 Nordeste 22 Norte 1.9 -- -- 86
2019-03-20 13:00:00 6.8 7 Nordeste 26 Nordeste 0.2 -- -- 76
2019-03-20 12:00:00 7.9 6 Nordeste 27 Norte 0 -- -- 70
2019-03-20 11:00:00 7.1 6 Nordeste 37 Norte 0 -- -- 70
2019-03-20 10:00:00 7.2 3 Nordeste 30 Este 0 -- -- 63
2019-03-20 09:00:00 7.4 4 Nordeste 22 Este 0 -- -- 59
2019-03-20 08:00:00 6.9 4 Nordeste 23 Noroeste 0 -- -- 63
2019-03-20 07:00:00 6.7 4 Este 15 Nordeste 0 -- -- 67
2019-03-20 06:00:00 7 3 Norte 15 Noroeste 0 -- -- 70
2019-03-20 05:00:00 7 2 Este 19 Norte 0 -- -- 76
2019-03-20 04:00:00 6.9 0 Calma 13 Nordeste 0 -- -- 75
2019-03-20 03:00:00 6.7 2 Norte 16 Este 0 -- -- 71
2019-03-20 02:00:00 6.6 0 Calma 14 Este 0 -- -- 73
2019-03-20 01:00:00 7.2 0 Calma 21 Nordeste 0 -- -- 73
2019-03-20 00:00:00 7.4 2 Norte 21 Sudeste 0 -- -- 74
2019-03-19 23:00:00 7.2 0 Calma 18 Nordeste 0 -- -- 74
2019-03-19 22:00:00 7.4 0 Calma 25 Este 0 -- -- 74
2019-03-19 21:00:00 7.4 4 Nordeste 21 Norte 0 -- -- 71
2019-03-19 20:00:00 -- 3 Este 16 Norte 0 -- -- --
2019-03-19 19:00:00 6.7 2 Sudeste 24 Este 0 -- -- 69
2019-03-19 18:00:00 6.9 3 Este 19 Este 0 -- -- 69
2019-03-19 17:00:00 7.4 4 Nordeste 21 Este 0 -- -- 69
2019-03-19 16:00:00 7.6 0 Calma 16 Oeste 0 -- -- 71
2019-03-19 15:00:00 7.5 0 Calma 14 Norte 0 -- -- 75
2019-03-19 14:00:00 7.7 3 Sudoeste 15 Sudoeste 0.6 -- -- 77
2019-03-19 13:00:00 6.2 4 Este 20 Sudeste 0 -- -- 78
2019-03-19 12:00:00 8.3 0 Calma 12 Sudeste 0 -- -- 83
2019-03-19 11:00:00 5.2 3 Sudeste 11 Sur 2.1 -- -- 90
2019-03-19 10:00:00 4.9 0 Calma 17 Oeste 1.8 -- -- 90
2019-03-19 09:00:00 4.5 6 Sudoeste 17 Oeste 4 -- -- 90
2019-03-19 08:00:00 5.2 0 Calma -- -- 0 -- -- 90
2019-03-19 07:00:00 4.8 0 Calma -- -- 0 -- -- 90
2019-03-19 06:00:00 3.9 0 Calma -- -- 0 -- -- 90
2019-03-19 05:00:00 3.4 0 Calma -- -- 0 -- -- 90
2019-03-19 04:00:00 2.8 0 Calma -- -- 0 -- -- 90
2019-03-19 03:00:00 2.6 0 Calma 5 Sudoeste 0 -- -- 90
2019-03-19 02:00:00 3.1 0 Calma 4 Sudeste 0 -- -- 90
2019-03-19 01:00:00 2.3 0 Calma 2 Sudeste 0 -- -- 90
2019-03-19 00:00:00 2.4 0 Calma 5 Nordeste 0 -- -- 90